createdAt,value
2019-02-21T00:00:05.699Z,70.00
2019-02-21T00:01:08.354Z,70.10
2019-02-21T00:02:07.999Z,70.10
2019-02-21T00:03:05.038Z,70.10
2019-02-21T00:04:05.150Z,70.10
2019-02-21T00:05:05.236Z,70.00
2019-02-21T00:06:05.361Z,70.10
2019-02-21T00:07:05.466Z,70.10
2019-02-21T00:08:05.657Z,70.10
2019-02-21T00:09:08.274Z,70.20
2019-02-21T00:10:10.307Z,70.30
2019-02-21T00:11:07.835Z,70.20
2019-02-21T00:12:06.071Z,70.20
2019-02-21T00:13:10.345Z,70.30
2019-02-21T00:14:05.376Z,70.30
2019-02-21T00:15:05.540Z,70.40
2019-02-21T00:16:05.805Z,70.50
2019-02-21T00:17:06.154Z,70.50
2019-02-21T00:18:05.357Z,70.50
2019-02-21T00:19:05.554Z,70.50
2019-02-21T00:20:08.203Z,70.50
2019-02-21T00:21:05.200Z,70.50
2019-02-21T00:22:07.963Z,70.90
2019-02-21T00:23:05.020Z,70.90
2019-02-21T00:24:05.300Z,70.90
2019-02-21T00:25:05.408Z,70.90
2019-02-21T00:26:05.533Z,70.90
2019-02-21T00:27:08.144Z,70.90
2019-02-21T00:28:05.141Z,71.00
2019-02-21T00:29:05.346Z,71.00
2019-02-21T00:30:07.973Z,71.00
2019-02-21T00:31:08.422Z,71.10
2019-02-21T00:32:05.520Z,71.10
2019-02-21T00:33:05.813Z,71.10
2019-02-21T00:34:06.081Z,71.10
2019-02-21T00:35:07.779Z,71.30
2019-02-21T00:36:05.759Z,71.20
2019-02-21T00:37:05.943Z,71.30
2019-02-21T00:38:05.108Z,71.50
2019-02-21T00:39:07.739Z,71.70
2019-02-21T00:40:08.230Z,71.60
2019-02-21T00:41:05.217Z,71.60
2019-02-21T00:42:05.369Z,71.70
2019-02-21T00:43:05.583Z,71.80
2019-02-21T00:44:05.764Z,71.80
2019-02-21T00:45:05.908Z,71.90
2019-02-21T00:46:05.088Z,72.00
2019-02-21T00:47:05.204Z,72.00
2019-02-21T00:48:07.844Z,72.30
2019-02-21T00:49:05.953Z,72.30
2019-02-21T00:50:07.617Z,72.40
2019-02-21T00:51:05.704Z,72.40
2019-02-21T00:52:05.967Z,72.40
2019-02-21T00:53:05.059Z,72.90
2019-02-21T00:54:05.217Z,72.70
2019-02-21T00:55:05.354Z,72.70
2019-02-21T00:56:08.092Z,72.90
2019-02-21T00:57:05.065Z,72.90
2019-02-21T00:58:07.694Z,73.20
2019-02-21T00:59:08.250Z,73.30
2019-02-21T01:00:05.234Z,73.20
2019-02-21T01:01:05.468Z,73.20
2019-02-21T01:02:05.713Z,73.40
2019-02-21T01:03:05.858Z,73.40
2019-02-21T01:04:07.613Z,73.40
2019-02-21T01:05:05.631Z,73.50
2019-02-21T01:06:05.900Z,73.50
2019-02-21T01:07:07.785Z,73.70
2019-02-21T01:08:05.763Z,73.70
2019-02-21T01:09:08.469Z,73.80
2019-02-21T01:10:05.485Z,73.80
2019-02-21T01:11:08.042Z,73.80
2019-02-21T01:12:04.955Z,73.80
2019-02-21T01:13:07.552Z,74.00
2019-02-21T01:14:05.691Z,73.90
2019-02-21T01:15:08.321Z,73.90
2019-02-21T01:16:07.755Z,74.10
2019-02-21T01:17:05.746Z,74.00
2019-02-21T01:18:05.982Z,74.00
2019-02-21T01:19:05.116Z,73.90
2019-02-21T01:20:05.249Z,74.00
2019-02-21T01:21:07.957Z,74.10
2019-02-21T01:22:07.623Z,74.20
2019-02-21T01:23:05.688Z,74.10
2019-02-21T01:24:05.769Z,74.10
2019-02-21T01:25:08.424Z,74.20
2019-02-21T01:26:08.051Z,74.20
2019-02-21T01:27:07.715Z,74.20
2019-02-21T01:28:05.788Z,74.20
2019-02-21T01:29:05.977Z,74.20
2019-02-21T01:30:05.393Z,74.20
2019-02-21T01:31:05.468Z,74.10
2019-02-21T01:32:08.057Z,74.20
2019-02-21T01:33:05.198Z,74.20
2019-02-21T01:34:05.504Z,74.30
2019-02-21T01:35:05.662Z,74.40
2019-02-21T01:36:05.815Z,74.50
2019-02-21T01:37:05.917Z,74.50
2019-02-21T01:38:05.142Z,74.50
2019-02-21T01:39:07.885Z,74.60
2019-02-21T01:40:05.954Z,74.60
2019-02-21T01:41:05.205Z,74.60
2019-02-21T01:42:07.848Z,74.80
2019-02-21T01:43:05.778Z,74.80
2019-02-21T01:44:06.036Z,74.90
2019-02-21T01:45:05.116Z,75.10
2019-02-21T01:46:05.160Z,75.00
2019-02-21T01:47:05.232Z,75.10
2019-02-21T01:48:10.385Z,75.30
2019-02-21T01:49:13.036Z,75.40
2019-02-21T01:50:05.063Z,75.30
2019-02-21T01:51:05.011Z,75.50
2019-02-21T01:52:05.246Z,75.60
2019-02-21T01:53:07.904Z,75.90
2019-02-21T01:54:05.815Z,75.90
2019-02-21T01:55:06.019Z,75.90
2019-02-21T01:56:05.225Z,76.10
2019-02-21T01:57:05.484Z,76.10
2019-02-21T01:58:05.783Z,76.20
2019-02-21T01:59:05.900Z,76.30
2019-02-21T02:00:04.986Z,76.50
2019-02-21T02:01:09.263Z,76.60
2019-02-21T02:02:07.963Z,76.60
2019-02-21T02:03:08.560Z,76.70
2019-02-21T02:04:08.115Z,76.70
2019-02-21T02:05:07.574Z,76.60
2019-02-21T02:06:05.526Z,76.60
2019-02-21T02:07:05.620Z,76.70
2019-02-21T02:08:05.799Z,76.90
2019-02-21T02:09:08.490Z,77.10
2019-02-21T02:10:05.490Z,77.10
2019-02-21T02:11:05.801Z,77.20
2019-02-21T02:12:05.934Z,77.20
2019-02-21T02:13:05.000Z,77.30
2019-02-21T02:14:05.121Z,77.30
2019-02-21T02:15:05.269Z,77.30
2019-02-21T02:16:05.415Z,77.20
2019-02-21T02:17:05.524Z,77.20
2019-02-21T02:18:05.727Z,77.20
2019-02-21T02:19:05.803Z,77.30
2019-02-21T02:20:06.055Z,77.60
2019-02-21T02:21:05.328Z,77.90
2019-02-21T02:22:05.439Z,77.90
2019-02-21T02:23:05.552Z,77.90
2019-02-21T02:24:08.166Z,78.20
2019-02-21T02:25:05.332Z,78.10
2019-02-21T02:26:05.448Z,78.20
2019-02-21T02:27:05.708Z,78.30
2019-02-21T02:28:08.329Z,78.20
2019-02-21T02:29:05.294Z,78.20
2019-02-21T02:30:08.236Z,78.30
2019-02-21T02:31:05.175Z,78.30
2019-02-21T02:32:05.372Z,78.30
2019-02-21T02:33:05.554Z,78.50
2019-02-21T02:34:05.690Z,78.80
2019-02-21T02:35:08.365Z,79.00
2019-02-21T02:36:07.827Z,79.00
2019-02-21T02:37:05.762Z,79.10
2019-02-21T02:38:05.942Z,79.10
2019-02-21T02:39:05.131Z,79.10
2019-02-21T02:40:05.290Z,79.40
2019-02-21T02:41:07.916Z,79.60
2019-02-21T02:42:05.938Z,79.50
2019-02-21T02:43:05.004Z,79.60
2019-02-21T02:44:05.199Z,79.50
2019-02-21T02:45:05.365Z,79.60
2019-02-21T02:46:05.464Z,79.50
2019-02-21T02:47:05.705Z,79.40
2019-02-21T02:48:05.960Z,79.40
2019-02-21T02:49:07.626Z,79.40
2019-02-21T02:50:08.103Z,79.30
2019-02-21T02:51:07.623Z,79.30
2019-02-21T02:52:08.269Z,79.30
2019-02-21T02:53:07.862Z,79.30
2019-02-21T02:54:08.410Z,79.30
2019-02-21T02:55:05.349Z,79.30
2019-02-21T02:56:05.420Z,79.30
2019-02-21T02:57:05.512Z,79.30
2019-02-21T02:58:07.060Z,79.40
2019-02-21T02:59:07.836Z,79.40
2019-02-21T03:00:05.987Z,79.40
2019-02-21T03:01:05.157Z,79.40
2019-02-21T03:02:05.224Z,79.40
2019-02-21T03:03:05.426Z,79.40
2019-02-21T03:04:05.666Z,79.30
2019-02-21T03:05:05.866Z,79.40
2019-02-21T03:06:07.640Z,79.40
2019-02-21T03:07:05.706Z,79.40
2019-02-21T03:08:05.970Z,79.30
2019-02-21T03:09:05.157Z,79.30
2019-02-21T03:10:07.890Z,79.30
2019-02-21T03:11:05.944Z,79.20
2019-02-21T03:12:07.786Z,79.50
2019-02-21T03:13:05.911Z,79.50
2019-02-21T03:14:05.138Z,79.50
2019-02-21T03:15:05.249Z,79.60
2019-02-21T03:16:07.927Z,79.70
2019-02-21T03:17:08.510Z,79.70
2019-02-21T03:18:08.069Z,79.80
2019-02-21T03:19:05.062Z,79.70
2019-02-21T03:20:05.326Z,79.90
2019-02-21T03:21:05.421Z,79.80
2019-02-21T03:22:08.080Z,80.00
2019-02-21T03:23:07.689Z,80.00
2019-02-21T03:24:05.835Z,80.00
2019-02-21T03:25:07.502Z,80.00
2019-02-21T03:26:07.980Z,80.00
2019-02-21T03:27:05.057Z,80.00
2019-02-21T03:28:05.441Z,80.00
2019-02-21T03:29:05.531Z,80.00
2019-02-21T03:30:05.958Z,80.00
2019-02-21T03:31:05.140Z,79.90
2019-02-21T03:32:05.240Z,79.90
2019-02-21T03:33:05.405Z,79.90
2019-02-21T03:34:05.596Z,80.00
2019-02-21T03:35:05.830Z,80.00
2019-02-21T03:36:08.461Z,79.90
2019-02-21T03:37:08.142Z,79.90
2019-02-21T03:38:05.192Z,79.90
2019-02-21T03:39:07.972Z,79.90
2019-02-21T03:40:08.548Z,79.90
2019-02-21T03:41:15.381Z,79.90
2019-02-21T03:42:05.325Z,79.90
2019-02-21T03:43:05.550Z,79.90
2019-02-21T03:44:10.708Z,79.90
2019-02-21T03:45:08.374Z,80.00
2019-02-21T03:46:05.525Z,80.00
2019-02-21T03:47:10.755Z,79.90
2019-02-21T03:48:08.218Z,80.00
2019-02-21T03:49:07.910Z,79.90
2019-02-21T03:50:05.967Z,80.00
2019-02-21T03:51:07.748Z,80.10
2019-02-21T03:52:05.851Z,80.00
2019-02-21T03:53:04.989Z,80.10
2019-02-21T03:54:05.236Z,80.10
2019-02-21T03:55:05.420Z,80.30
2019-02-21T03:56:08.137Z,80.40
2019-02-21T03:57:10.296Z,80.30
2019-02-21T03:58:05.359Z,80.30
2019-02-21T03:59:08.042Z,80.40
2019-02-21T04:00:05.236Z,80.30
2019-02-21T04:01:08.054Z,80.40
2019-02-21T04:02:06.143Z,80.40
2019-02-21T04:03:05.293Z,80.50
2019-02-21T04:04:08.032Z,80.60
2019-02-21T04:05:07.719Z,80.50
2019-02-21T04:06:05.817Z,80.50
2019-02-21T04:07:08.593Z,80.60
2019-02-21T04:08:05.569Z,80.60
2019-02-21T04:09:05.704Z,80.60
2019-02-21T04:10:05.936Z,80.70
2019-02-21T04:11:05.266Z,80.70
2019-02-21T04:12:08.040Z,80.80
2019-02-21T04:13:05.063Z,80.80
2019-02-21T04:14:05.150Z,80.80
2019-02-21T04:15:07.756Z,80.90
2019-02-21T04:16:05.852Z,80.90
2019-02-21T04:17:05.060Z,80.90
2019-02-21T04:18:05.216Z,80.90
2019-02-21T04:19:05.383Z,80.90
2019-02-21T04:20:08.147Z,80.90
2019-02-21T04:21:07.659Z,81.00
2019-02-21T04:22:05.729Z,81.00
2019-02-21T04:23:05.947Z,80.90
2019-02-21T04:24:05.176Z,80.90
2019-02-21T04:25:05.304Z,80.90
2019-02-21T04:26:05.412Z,80.90
2019-02-21T04:27:13.262Z,81.00
2019-02-21T04:28:07.789Z,81.00
2019-02-21T04:29:08.346Z,81.10
2019-02-21T04:30:05.316Z,81.00
2019-02-21T04:31:05.437Z,81.10
2019-02-21T04:32:17.301Z,81.10
2019-02-21T04:33:08.006Z,81.20
2019-02-21T04:34:04.978Z,81.10
2019-02-21T04:35:07.819Z,81.30
2019-02-21T04:36:05.845Z,81.30
2019-02-21T04:37:05.941Z,81.10
2019-02-21T04:38:07.609Z,81.40
2019-02-21T04:39:05.758Z,81.40
2019-02-21T04:40:08.596Z,81.40
2019-02-21T04:41:05.631Z,81.30
2019-02-21T04:42:05.751Z,81.50
2019-02-21T04:43:05.896Z,81.50
2019-02-21T04:44:07.698Z,81.60
2019-02-21T04:45:05.794Z,81.60
2019-02-21T04:46:05.952Z,81.60
2019-02-21T04:47:07.594Z,81.70
2019-02-21T04:48:05.608Z,81.70
2019-02-21T04:49:05.879Z,81.80
2019-02-21T04:50:05.054Z,81.90
2019-02-21T04:51:10.206Z,81.80
2019-02-21T04:52:07.927Z,81.90
2019-02-21T04:53:05.959Z,81.80
2019-02-21T04:54:05.042Z,81.80
2019-02-21T04:55:05.193Z,81.80
2019-02-21T04:56:05.304Z,81.80
2019-02-21T04:57:08.035Z,81.80
2019-02-21T04:58:05.037Z,81.80
2019-02-21T04:59:07.146Z,81.80
2019-02-21T05:00:07.933Z,81.80
2019-02-21T05:01:05.940Z,81.90
2019-02-21T05:02:05.188Z,81.70
2019-02-21T05:03:07.842Z,81.50
2019-02-21T05:04:05.872Z,81.60
2019-02-21T05:05:07.489Z,81.50
2019-02-21T05:06:05.591Z,81.50
2019-02-21T05:07:05.652Z,81.60
2019-02-21T05:08:05.742Z,81.50
2019-02-21T05:09:07.961Z,81.60
2019-02-21T05:10:05.086Z,81.50
2019-02-21T05:11:05.140Z,81.50
2019-02-21T05:12:05.235Z,81.50
2019-02-21T05:13:05.310Z,81.50
2019-02-21T05:14:05.414Z,81.50
2019-02-21T05:15:05.620Z,81.40
2019-02-21T05:16:05.715Z,81.40
2019-02-21T05:17:05.953Z,81.40
2019-02-21T05:18:05.077Z,81.40
2019-02-21T05:19:05.292Z,81.30
2019-02-21T05:20:07.989Z,81.40
2019-02-21T05:21:06.080Z,81.40
2019-02-21T05:22:07.698Z,81.30
2019-02-21T05:23:05.703Z,81.30
2019-02-21T05:24:08.444Z,81.40
2019-02-21T05:25:05.824Z,81.30
2019-02-21T05:26:05.624Z,81.30
2019-02-21T05:27:07.560Z,81.30
2019-02-21T05:28:10.555Z,81.30
2019-02-21T05:29:05.541Z,81.40
2019-02-21T05:30:07.799Z,81.30
2019-02-21T05:31:05.881Z,81.50
2019-02-21T05:32:05.075Z,81.50
2019-02-21T05:33:07.712Z,81.50
2019-02-21T05:34:05.935Z,81.50
2019-02-21T05:35:05.110Z,81.40
2019-02-21T05:36:05.286Z,81.30
2019-02-21T05:37:05.478Z,81.30
2019-02-21T05:38:08.345Z,81.30
2019-02-21T05:39:05.472Z,81.40
2019-02-21T05:40:05.684Z,81.50
2019-02-21T05:41:05.964Z,81.30
2019-02-21T05:42:05.225Z,81.50
2019-02-21T05:43:05.456Z,81.30
2019-02-21T05:44:05.540Z,81.40
2019-02-21T05:45:05.694Z,81.50
2019-02-21T05:46:08.365Z,81.40
2019-02-21T05:47:07.844Z,81.40
2019-02-21T05:48:05.940Z,81.40
2019-02-21T05:49:05.132Z,81.40
2019-02-21T05:50:05.366Z,81.40
2019-02-21T05:51:05.479Z,81.50
2019-02-21T05:52:14.994Z,81.50
2019-02-21T05:53:05.070Z,81.50
2019-02-21T05:54:07.631Z,81.80
2019-02-21T05:55:05.614Z,81.80
2019-02-21T05:56:08.328Z,81.80
2019-02-21T05:57:07.868Z,81.80
2019-02-21T05:58:08.441Z,81.80
2019-02-21T05:59:07.974Z,81.80
2019-02-21T06:00:05.050Z,81.80
2019-02-21T06:01:05.181Z,81.80
2019-02-21T06:02:07.833Z,81.80
2019-02-21T06:03:05.838Z,81.80
2019-02-21T06:04:05.192Z,81.80
2019-02-21T06:05:05.465Z,81.80
2019-02-21T06:06:05.629Z,81.90
2019-02-21T06:07:05.790Z,81.80
2019-02-21T06:08:05.936Z,81.80
2019-02-21T06:09:05.065Z,81.80
2019-02-21T06:10:07.700Z,81.80
2019-02-21T06:11:05.709Z,81.80
2019-02-21T06:12:05.777Z,81.80
2019-02-21T06:13:05.943Z,81.80
2019-02-21T06:14:05.267Z,81.80
2019-02-21T06:15:05.415Z,81.90
2019-02-21T06:16:05.506Z,81.90
2019-02-21T06:17:05.790Z,81.90
2019-02-21T06:18:05.955Z,81.80
2019-02-21T06:19:05.126Z,81.80
2019-02-21T06:20:10.455Z,81.90
2019-02-21T06:21:05.486Z,81.90
2019-02-21T06:22:11.402Z,82.00
2019-02-21T06:23:05.656Z,82.00
2019-02-21T06:24:08.258Z,82.00
2019-02-21T06:25:05.273Z,82.00
2019-02-21T06:26:05.405Z,82.10
2019-02-21T06:27:08.068Z,82.30
2019-02-21T06:28:05.174Z,82.30
2019-02-21T06:29:10.510Z,82.30
2019-02-21T06:30:08.253Z,82.40
2019-02-21T06:31:05.299Z,82.30
2019-02-21T06:32:14.752Z,82.50
2019-02-21T06:33:06.034Z,82.60
2019-02-21T06:34:07.693Z,82.60
2019-02-21T06:35:05.724Z,82.60
2019-02-21T06:36:05.964Z,82.50
2019-02-21T06:37:07.719Z,82.50
2019-02-21T06:38:05.609Z,82.50
2019-02-21T06:39:08.458Z,82.60
2019-02-21T06:40:15.639Z,82.60
2019-02-21T06:41:10.826Z,82.60
2019-02-21T06:42:08.523Z,82.50
2019-02-21T06:43:05.713Z,82.50
2019-02-21T06:44:08.601Z,82.50
2019-02-21T06:45:05.587Z,82.50
2019-02-21T06:46:05.766Z,82.50
2019-02-21T06:47:08.590Z,82.50
2019-02-21T06:48:05.653Z,82.50
2019-02-21T06:49:05.902Z,82.60
2019-02-21T06:50:05.040Z,82.50
2019-02-21T06:51:07.700Z,82.60
2019-02-21T06:52:05.708Z,82.70
2019-02-21T06:53:05.954Z,82.70
2019-02-21T06:54:07.824Z,82.70
2019-02-21T06:55:05.865Z,82.70
2019-02-21T06:56:07.677Z,82.80
2019-02-21T06:57:10.814Z,82.70
2019-02-21T06:58:08.323Z,82.60
2019-02-21T06:59:07.870Z,82.60
2019-02-21T07:00:05.920Z,82.60
2019-02-21T07:01:07.635Z,82.70
2019-02-21T07:02:08.269Z,82.70
2019-02-21T07:03:16.253Z,82.70
2019-02-21T07:04:07.895Z,82.80
2019-02-21T07:05:05.903Z,82.80
2019-02-21T07:06:07.507Z,82.80
2019-02-21T07:07:05.667Z,82.80
2019-02-21T07:08:05.925Z,82.90
2019-02-21T07:09:07.645Z,82.80
2019-02-21T07:10:05.640Z,82.80
2019-02-21T07:11:06.955Z,82.80
2019-02-21T07:12:05.088Z,82.80
2019-02-21T07:13:05.427Z,82.80
2019-02-21T07:14:08.134Z,82.80
2019-02-21T07:15:05.241Z,82.80
2019-02-21T07:16:07.918Z,83.00
2019-02-21T07:17:05.102Z,82.90
2019-02-21T07:18:07.801Z,83.00
2019-02-21T07:19:05.951Z,82.90
2019-02-21T07:20:07.740Z,83.00
2019-02-21T07:21:05.769Z,83.00
2019-02-21T07:22:06.777Z,83.00
2019-02-21T07:23:05.974Z,83.10
2019-02-21T07:24:05.093Z,83.00
2019-02-21T07:25:07.700Z,83.00
2019-02-21T07:26:08.271Z,83.10
2019-02-21T07:27:05.310Z,83.10
2019-02-21T07:28:14.829Z,83.00
2019-02-21T07:29:05.861Z,82.90
2019-02-21T07:30:05.445Z,82.80
2019-02-21T07:31:05.479Z,82.90
2019-02-21T07:32:05.654Z,82.80
2019-02-21T07:33:08.426Z,82.90
2019-02-21T07:34:07.459Z,82.90
2019-02-21T07:35:05.604Z,82.90
2019-02-21T07:36:05.909Z,82.90
2019-02-21T07:37:05.083Z,82.90
2019-02-21T07:38:05.350Z,83.00
2019-02-21T07:39:20.683Z,83.00
2019-02-21T07:40:06.103Z,83.00
2019-02-21T07:41:05.586Z,83.10
2019-02-21T07:42:08.431Z,83.10
2019-02-21T07:43:07.945Z,83.10
2019-02-21T07:45:05.920Z,83.10
2019-02-21T07:46:07.328Z,83.10
2019-02-21T07:46:11.879Z,83.00
2019-02-21T07:47:08.616Z,83.10
2019-02-21T07:48:05.695Z,83.10
2019-02-21T07:49:13.572Z,82.90
2019-02-21T07:50:10.658Z,83.00
2019-02-21T07:51:05.670Z,82.90
2019-02-21T07:52:05.994Z,82.90
2019-02-21T07:53:05.325Z,82.90
2019-02-21T07:54:05.570Z,82.70
2019-02-21T07:55:05.678Z,82.70
2019-02-21T07:56:05.929Z,82.70
2019-02-21T07:57:05.119Z,82.70
2019-02-21T07:58:07.793Z,82.70
2019-02-21T07:59:05.875Z,82.70
2019-02-21T08:00:07.707Z,82.80
2019-02-21T08:01:05.797Z,82.70
2019-02-21T08:02:08.582Z,82.80
2019-02-21T08:03:05.728Z,82.80
2019-02-21T08:04:05.938Z,82.80
2019-02-21T08:05:10.167Z,82.70
2019-02-21T08:06:07.698Z,82.80
2019-02-21T08:07:08.238Z,82.70
2019-02-21T08:08:05.311Z,82.70
2019-02-21T08:09:08.116Z,82.70
2019-02-21T08:10:05.228Z,82.70
2019-02-21T08:11:07.563Z,82.80
2019-02-21T08:12:05.657Z,82.70
2019-02-21T08:13:05.787Z,82.80
2019-02-21T08:14:10.991Z,82.90
2019-02-21T08:15:05.055Z,82.90
2019-02-21T08:16:05.133Z,82.80
2019-02-21T08:17:05.296Z,82.80
2019-02-21T08:18:08.086Z,82.70
2019-02-21T08:19:05.062Z,82.70
2019-02-21T08:20:09.193Z,82.70
2019-02-21T08:21:07.835Z,82.80
2019-02-21T08:22:05.834Z,82.80
2019-02-21T08:23:06.039Z,82.80
2019-02-21T08:24:07.710Z,82.70
2019-02-21T08:25:08.257Z,82.70
2019-02-21T08:26:05.296Z,82.70
2019-02-21T08:27:07.956Z,82.60
2019-02-21T08:28:08.462Z,82.70
2019-02-21T08:29:06.572Z,82.70
2019-02-21T08:30:05.819Z,82.70
2019-02-21T08:31:05.002Z,82.60
2019-02-21T08:32:05.200Z,82.60
2019-02-21T08:33:05.470Z,82.50
2019-02-21T08:34:05.809Z,82.60
2019-02-21T08:35:07.231Z,82.50
2019-02-21T08:36:07.844Z,82.40
2019-02-21T08:37:13.392Z,82.40
2019-02-21T08:38:08.026Z,82.40
2019-02-21T08:39:07.634Z,82.40
2019-02-21T08:40:05.701Z,82.40
2019-02-21T08:41:05.850Z,82.40
2019-02-21T08:42:05.116Z,82.50
2019-02-21T08:43:07.837Z,82.50
2019-02-21T08:44:08.501Z,82.50
2019-02-21T08:45:05.632Z,82.40
2019-02-21T08:46:05.825Z,82.60
2019-02-21T08:47:05.062Z,82.60
2019-02-21T08:48:05.583Z,82.50
2019-02-21T08:49:08.378Z,82.40
2019-02-21T08:50:05.409Z,82.40
2019-02-21T08:51:08.235Z,82.30
2019-02-21T08:52:07.855Z,82.20
2019-02-21T08:53:08.625Z,82.10
2019-02-21T08:54:06.236Z,82.10
2019-02-21T08:55:05.369Z,82.00
2019-02-21T08:56:05.651Z,81.90
2019-02-21T08:57:08.492Z,81.90
2019-02-21T08:58:10.603Z,81.80
2019-02-21T08:59:05.753Z,81.80
2019-02-21T09:00:11.392Z,81.80
2019-02-21T09:01:13.137Z,81.90
2019-02-21T09:02:05.535Z,81.90
2019-02-21T09:03:08.322Z,81.90
2019-02-21T09:04:26.671Z,81.90
2019-02-21T09:05:05.154Z,81.90
2019-02-21T09:06:05.489Z,81.90
2019-02-21T09:07:05.614Z,81.80
2019-02-21T09:08:05.873Z,81.80
2019-02-21T09:09:05.043Z,81.80
2019-02-21T09:10:05.298Z,81.90
2019-02-21T09:11:05.573Z,81.80
2019-02-21T09:12:06.149Z,81.80
2019-02-21T09:13:05.382Z,81.80
2019-02-21T09:14:08.185Z,81.70
2019-02-21T09:15:07.885Z,81.60
2019-02-21T09:16:06.047Z,81.60
2019-02-21T09:17:07.792Z,81.70
2019-02-21T09:18:08.448Z,81.60
2019-02-21T09:19:07.964Z,81.70
2019-02-21T09:20:06.113Z,81.70
2019-02-21T09:21:07.814Z,81.70
2019-02-21T09:22:05.823Z,81.60
2019-02-21T09:23:05.952Z,81.70
2019-02-21T09:24:05.146Z,81.70
2019-02-21T09:25:07.972Z,81.80
2019-02-21T09:26:07.594Z,81.80
2019-02-21T09:27:08.304Z,81.60
2019-02-21T09:28:05.596Z,81.60
2019-02-21T09:29:13.368Z,81.40
2019-02-21T09:30:05.577Z,81.40
2019-02-21T09:31:08.297Z,81.00
2019-02-21T09:32:07.393Z,81.00
2019-02-21T09:33:20.341Z,80.80
2019-02-21T09:34:05.191Z,80.90
2019-02-21T09:35:07.974Z,80.70
2019-02-21T09:36:05.002Z,80.70
2019-02-21T09:37:05.900Z,80.60
2019-02-21T09:38:05.183Z,80.60
2019-02-21T09:39:05.438Z,80.50
2019-02-21T09:40:10.506Z,80.50
2019-02-21T09:41:05.838Z,80.50
2019-02-21T09:42:04.979Z,80.40
2019-02-21T09:43:07.672Z,80.20
2019-02-21T09:44:05.698Z,80.20
2019-02-21T09:45:09.773Z,80.20
2019-02-21T09:46:05.886Z,80.20
2019-02-21T09:47:05.003Z,80.20
2019-02-21T09:48:05.133Z,80.10
2019-02-21T09:49:05.395Z,80.00
2019-02-21T09:50:05.654Z,80.00
2019-02-21T09:51:05.867Z,80.00
2019-02-21T09:52:05.082Z,79.90
2019-02-21T09:53:05.336Z,79.70
2019-02-21T09:54:08.053Z,79.30
2019-02-21T09:55:07.529Z,79.10
2019-02-21T09:56:05.602Z,79.20
2019-02-21T09:57:13.806Z,78.90
2019-02-21T09:58:11.179Z,78.50
2019-02-21T09:59:05.240Z,78.50
2019-02-21T10:00:05.376Z,78.20
2019-02-21T10:01:05.539Z,78.20
2019-02-21T10:02:05.887Z,78.20
2019-02-21T10:03:05.231Z,78.10
2019-02-21T10:04:05.453Z,78.10
2019-02-21T10:05:06.099Z,78.00
2019-02-21T10:06:05.401Z,78.00
2019-02-21T10:07:05.924Z,77.90
2019-02-21T10:08:05.087Z,77.60
2019-02-21T10:09:05.326Z,77.60
2019-02-21T10:10:08.575Z,77.50
2019-02-21T10:11:08.402Z,77.50
2019-02-21T10:12:05.565Z,77.50
2019-02-21T10:13:07.585Z,77.60
2019-02-21T10:14:05.591Z,77.60
2019-02-21T10:15:10.919Z,77.00
2019-02-21T10:16:06.052Z,76.90
2019-02-21T10:17:10.325Z,76.60
2019-02-21T10:18:05.320Z,76.50
2019-02-21T10:19:05.684Z,76.60
2019-02-21T10:20:06.066Z,76.70
2019-02-21T10:21:05.413Z,76.80
2019-02-21T10:22:05.643Z,76.80
2019-02-21T10:23:05.768Z,76.70
2019-02-21T10:24:05.860Z,76.60
2019-02-21T10:25:05.134Z,76.70
2019-02-21T10:26:05.292Z,76.80
2019-02-21T10:27:07.985Z,76.50
2019-02-21T10:28:05.161Z,76.50
2019-02-21T10:29:05.594Z,76.50
2019-02-21T10:30:05.989Z,76.10
2019-02-21T10:31:07.728Z,75.80
2019-02-21T10:32:10.871Z,75.50
2019-02-21T10:33:05.876Z,75.50
2019-02-21T10:34:05.069Z,75.30
2019-02-21T10:35:05.202Z,75.10
2019-02-21T10:36:07.850Z,74.70
2019-02-21T10:37:05.888Z,74.70
2019-02-21T10:38:04.997Z,74.70
2019-02-21T10:39:05.273Z,74.80
2019-02-21T10:40:07.940Z,74.60
2019-02-21T10:41:08.610Z,74.60
2019-02-21T10:42:05.241Z,74.40
2019-02-21T10:43:05.558Z,74.20
2019-02-21T10:44:11.226Z,73.90
2019-02-21T10:45:10.492Z,73.90
2019-02-21T10:46:05.612Z,73.90
2019-02-21T10:47:05.847Z,74.20
2019-02-21T10:48:05.028Z,74.30
2019-02-21T10:49:07.787Z,74.10
2019-02-21T10:50:05.874Z,74.20
2019-02-21T10:51:05.039Z,74.10
2019-02-21T10:52:05.206Z,73.90
2019-02-21T10:53:07.894Z,73.40
2019-02-21T10:54:05.921Z,73.40
2019-02-21T10:55:07.566Z,73.00
2019-02-21T10:56:08.160Z,72.80
2019-02-21T10:57:07.726Z,72.70
2019-02-21T10:58:08.251Z,72.40
2019-02-21T10:59:05.408Z,72.40
2019-02-21T11:00:05.787Z,72.80
2019-02-21T11:01:05.105Z,73.00
2019-02-21T11:02:05.351Z,73.00
2019-02-21T11:03:05.501Z,73.20
2019-02-21T11:04:05.635Z,73.10
2019-02-21T11:05:10.953Z,73.20
2019-02-21T11:06:12.688Z,73.30
2019-02-21T11:07:05.737Z,73.30
2019-02-21T11:08:07.682Z,73.30
2019-02-21T11:09:05.728Z,73.30
2019-02-21T11:10:08.362Z,73.40
2019-02-21T11:11:07.906Z,73.40
2019-02-21T11:12:08.467Z,73.40
2019-02-21T11:13:05.434Z,73.40
2019-02-21T11:14:08.166Z,73.30
2019-02-21T11:15:07.904Z,73.30
2019-02-21T11:16:05.976Z,73.30
2019-02-21T11:17:05.200Z,73.40
2019-02-21T11:18:05.562Z,73.50
2019-02-21T11:19:05.865Z,73.40
2019-02-21T11:20:05.090Z,73.50
2019-02-21T11:21:05.345Z,73.40
2019-02-21T11:22:08.077Z,73.40
2019-02-21T11:23:07.029Z,73.40
2019-02-21T11:24:05.222Z,73.50
2019-02-21T11:25:08.018Z,73.50
2019-02-21T11:26:05.217Z,73.50
2019-02-21T11:27:07.953Z,73.30
2019-02-21T11:28:05.964Z,73.30
2019-02-21T11:29:07.567Z,73.30
2019-02-21T11:30:08.479Z,73.30
2019-02-21T11:31:05.546Z,73.30
2019-02-21T11:32:05.720Z,73.40
2019-02-21T11:33:05.935Z,73.40
2019-02-21T11:34:05.126Z,73.50
2019-02-21T11:35:07.175Z,73.60
2019-02-21T11:36:05.319Z,73.60
2019-02-21T11:37:05.475Z,73.50
2019-02-21T11:38:05.617Z,73.60
2019-02-21T11:39:07.527Z,73.20
2019-02-21T11:40:06.080Z,73.10
2019-02-21T11:41:07.853Z,73.00
2019-02-21T11:42:05.899Z,72.80
2019-02-21T11:43:05.081Z,72.90
2019-02-21T11:44:07.786Z,73.10
2019-02-21T11:45:05.787Z,73.10
2019-02-21T11:46:06.017Z,73.00
2019-02-21T11:47:05.267Z,72.90
2019-02-21T11:48:09.692Z,72.70
2019-02-21T11:49:08.306Z,72.70
2019-02-21T11:50:07.833Z,72.60
2019-02-21T11:51:07.905Z,72.60
2019-02-21T11:52:10.761Z,72.60
2019-02-21T11:53:08.450Z,72.70
2019-02-21T11:54:05.560Z,72.80
2019-02-21T11:55:05.773Z,72.70
2019-02-21T11:56:05.988Z,72.80
2019-02-21T11:57:05.193Z,72.80
2019-02-21T11:58:07.863Z,72.50
2019-02-21T11:59:06.051Z,72.50
2019-02-21T12:00:05.281Z,72.30
2019-02-21T12:01:08.060Z,72.40
2019-02-21T12:02:07.604Z,72.30
2019-02-21T12:03:05.794Z,72.30
2019-02-21T12:04:08.517Z,72.30
2019-02-21T12:05:19.540Z,72.30
2019-02-21T12:06:08.529Z,72.40
2019-02-21T12:07:05.562Z,72.40
2019-02-21T12:08:05.639Z,72.40
2019-02-21T12:09:08.318Z,72.60
2019-02-21T12:10:07.947Z,72.50
2019-02-21T12:11:05.020Z,72.50
2019-02-21T12:12:05.207Z,72.60
2019-02-21T12:13:05.337Z,72.60
2019-02-21T12:14:07.950Z,72.30
2019-02-21T12:15:08.434Z,72.20
2019-02-21T12:16:08.190Z,72.10
2019-02-21T12:17:07.734Z,72.20
2019-02-21T12:18:08.511Z,72.20
2019-02-21T12:19:08.073Z,72.20
2019-02-21T12:20:05.157Z,72.20
2019-02-21T12:21:07.768Z,72.00
2019-02-21T12:22:05.745Z,72.00
2019-02-21T12:23:05.877Z,72.10
2019-02-21T12:24:05.106Z,72.20
2019-02-21T12:25:05.315Z,72.20
2019-02-21T12:26:05.547Z,72.20
2019-02-21T12:27:05.709Z,72.10
2019-02-21T12:28:05.874Z,72.10
2019-02-21T12:29:05.058Z,72.10
2019-02-21T12:30:08.243Z,72.10
2019-02-21T12:31:05.299Z,72.10
2019-02-21T12:32:05.496Z,71.90
2019-02-21T12:33:05.672Z,71.90
2019-02-21T12:34:08.411Z,71.50
2019-02-21T12:35:05.407Z,71.60
2019-02-21T12:36:05.685Z,71.20
2019-02-21T12:37:08.354Z,71.10
2019-02-21T12:38:05.604Z,71.10
2019-02-21T12:39:05.888Z,70.90
2019-02-21T12:40:05.098Z,70.60
2019-02-21T12:41:05.183Z,70.60
2019-02-21T12:42:07.945Z,70.50
2019-02-21T12:43:05.039Z,70.50
2019-02-21T12:44:05.224Z,70.10
2019-02-21T12:45:07.874Z,69.70
2019-02-21T12:46:05.981Z,69.80
2019-02-21T12:47:05.142Z,69.80
2019-02-21T12:48:12.856Z,69.60
2019-02-21T12:49:06.012Z,69.60
2019-02-21T12:50:05.197Z,69.70
2019-02-21T12:51:07.857Z,69.20
2019-02-21T12:52:08.351Z,68.60